Flugplatz Meinerzhagen

Für EDKZ sind keine METAR/TAF Berichte vorhanden.
Es werden die Flugwettermeldungen vom Flugplatz Cologne Bonn in 41 km Entfernung angezeigt.

Bericht für EDDK

vom 31.05. um 03:50 UTC

variable Windrichtung mit 1 kt

Sichtweite 10 km oder mehr

gute Sicht, keine Wolken < 5000 ft, keine CB, keine Wettererscheinungen (CAVOK)

Temperatur 8.0°C

Taupunkt 4.0°C

Luftfeuchtigkeit 76%

Luftdruck 1022 hPa

keine wesentliche Wetteränderung innerhalb den nächsten 2 Stunden zu erwarten

EDDK 310350Z VRB01KT CAVOK 08/04 Q1022 NOSIG

Prognose für EDDK

vom 30.05. um 23:00 UTC

Zwischen 00:00 UTC und 07:00 UTC

Wind 4 kt aus 90°

Sichtweite 10 km oder mehr

keine signifikanten Wettererscheinungen

keine Wolken


Zwischen 07:00 und 10:00 UTC übergehend zu

Wind 9 kt aus 70°

Sichtweite 10 km oder mehr

keine signifikanten Wettererscheinungen

keine Wolken


Zwischen 17:00 und 20:00 UTC übergehend zu

Wind 4 kt aus 100°

Sichtweite 10 km oder mehr

keine signifikanten Wettererscheinungen

keine Wolken

TAF EDDK 302300Z 3100/0106 09004KT CAVOK BECMG 3107/3110 07009KT BECMG 3117/3120 10004KT
Impressum